createdAt,value
2023-08-01T00:01:04.223Z,3.47
2023-08-01T00:03:32.900Z,2.75
2023-08-01T00:06:00.732Z,2.83
2023-08-01T00:08:28.520Z,2.45
2023-08-01T00:10:56.308Z,2.70
2023-08-01T00:13:24.051Z,2.78
2023-08-01T00:16:06.252Z,2.47
2023-08-01T00:18:35.999Z,2.60
2023-08-01T00:21:06.226Z,2.45
2023-08-01T00:23:34.071Z,2.90
2023-08-01T00:26:01.836Z,3.15
2023-08-01T00:28:33.820Z,2.83
2023-08-01T00:31:09.749Z,2.75
2023-08-01T00:33:37.741Z,3.13
2023-08-01T00:36:10.442Z,2.75
2023-08-01T00:38:38.694Z,3.25
2023-08-01T00:41:06.450Z,2.83
2023-08-01T00:43:34.306Z,2.65
2023-08-01T00:46:04.931Z,2.83
2023-08-01T00:48:33.186Z,2.60
2023-08-01T00:51:04.432Z,2.67
2023-08-01T00:53:32.231Z,2.95
2023-08-01T00:55:59.966Z,3.17
2023-08-01T00:58:27.726Z,2.60
2023-08-01T01:00:56.853Z,2.80
2023-08-01T01:03:25.244Z,2.70
2023-08-01T01:05:59.129Z,2.55
2023-08-01T01:08:27.495Z,2.70
2023-08-01T01:10:55.275Z,2.53
2023-08-01T01:13:23.052Z,3.05
2023-08-01T01:15:50.816Z,2.60
2023-08-01T01:18:18.554Z,2.72
2023-08-01T01:20:46.388Z,2.85
2023-08-01T01:23:14.182Z,3.05
2023-08-01T01:25:42.009Z,2.88
2023-08-01T01:28:09.763Z,2.83
2023-08-01T01:30:37.833Z,2.20
2023-08-01T01:33:06.555Z,3.08
2023-08-01T01:35:35.771Z,2.78
2023-08-01T01:38:06.563Z,2.90
2023-08-01T01:40:34.388Z,2.50
2023-08-01T01:43:02.206Z,2.72
2023-08-01T01:45:29.978Z,2.75
2023-08-01T01:47:57.797Z,2.67
2023-08-01T01:50:25.665Z,2.78
2023-08-01T01:52:53.404Z,2.63
2023-08-01T01:55:21.220Z,2.70
2023-08-01T01:57:49.261Z,2.58
2023-08-01T02:00:17.433Z,2.85
2023-08-01T02:02:45.196Z,2.72
2023-08-01T02:05:13.180Z,2.50
2023-08-01T02:07:41.008Z,2.40
2023-08-01T02:10:09.237Z,2.40
2023-08-01T02:12:37.170Z,3.05
2023-08-01T02:15:07.110Z,2.22
2023-08-01T02:17:34.876Z,2.25
2023-08-01T02:20:02.752Z,2.75
2023-08-01T02:22:30.543Z,2.75
2023-08-01T02:24:58.268Z,2.63
2023-08-01T02:27:26.336Z,2.40
2023-08-01T02:29:54.136Z,2.67
2023-08-01T02:32:21.932Z,2.60
2023-08-01T02:34:49.766Z,2.47
2023-08-01T02:37:17.518Z,2.10
2023-08-01T02:39:45.332Z,2.70
2023-08-01T02:42:13.074Z,2.80
2023-08-01T02:44:40.924Z,2.72
2023-08-01T02:47:08.653Z,2.73
2023-08-01T02:49:36.708Z,2.75
2023-08-01T02:52:04.721Z,3.00
2023-08-01T02:54:32.652Z,2.40
2023-08-01T02:57:00.500Z,2.38
2023-08-01T02:59:28.255Z,2.50
2023-08-01T03:01:56.044Z,2.83
2023-08-01T03:04:36.164Z,2.40
2023-08-01T03:07:08.805Z,2.83
2023-08-01T03:09:36.565Z,2.40
2023-08-01T03:12:04.646Z,2.75
2023-08-01T03:14:33.211Z,2.63
2023-08-01T03:17:00.967Z,2.58
2023-08-01T03:19:28.682Z,2.70
2023-08-01T03:21:56.922Z,2.72
2023-08-01T03:24:24.973Z,2.55
2023-08-01T03:26:52.742Z,2.38
2023-08-01T03:29:20.523Z,2.50
2023-08-01T03:31:48.289Z,2.30
2023-08-01T03:34:16.306Z,2.50
2023-08-01T03:36:44.129Z,2.55
2023-08-01T03:39:13.054Z,2.57
2023-08-01T03:41:40.984Z,2.57
2023-08-01T03:44:08.729Z,2.50
2023-08-01T03:46:36.650Z,2.57
2023-08-01T03:49:04.505Z,2.47
2023-08-01T03:51:32.259Z,2.30
2023-08-01T03:54:12.518Z,2.80
2023-08-01T03:56:44.690Z,2.80
2023-08-01T03:59:13.817Z,2.92
2023-08-01T04:01:42.027Z,2.53
2023-08-01T04:04:10.129Z,2.90
2023-08-01T04:06:38.376Z,2.33
2023-08-01T04:09:07.787Z,3.20
2023-08-01T04:11:35.702Z,2.63
2023-08-01T04:14:03.413Z,2.42
2023-08-01T04:16:31.161Z,2.40
2023-08-01T04:18:58.916Z,2.73
2023-08-01T04:21:26.757Z,2.87
2023-08-01T04:23:54.581Z,2.30
2023-08-01T04:26:22.876Z,2.40
2023-08-01T04:28:50.620Z,2.55
2023-08-01T04:31:18.428Z,2.58
2023-08-01T04:33:46.319Z,2.85
2023-08-01T04:36:14.177Z,2.65
2023-08-01T04:38:41.976Z,2.42
2023-08-01T04:41:09.756Z,2.53
2023-08-01T04:43:37.534Z,2.92
2023-08-01T04:46:05.314Z,2.80
2023-08-01T04:48:33.123Z,2.45
2023-08-01T04:51:00.902Z,2.60
2023-08-01T04:53:28.649Z,2.72
2023-08-01T04:55:56.378Z,3.08
2023-08-01T04:58:24.169Z,2.80
2023-08-01T05:00:52.096Z,2.95
2023-08-01T05:03:20.000Z,3.10
2023-08-01T05:05:47.841Z,3.10
2023-08-01T05:08:15.559Z,3.15
2023-08-01T05:10:43.342Z,3.38
2023-08-01T05:13:11.136Z,3.70
2023-08-01T05:15:38.902Z,2.97
2023-08-01T05:18:06.656Z,3.22
2023-08-01T05:20:35.139Z,2.90
2023-08-01T05:23:02.975Z,2.70
2023-08-01T05:25:30.826Z,3.00
2023-08-01T05:27:58.632Z,2.63
2023-08-01T05:30:26.512Z,2.70
2023-08-01T05:32:55.266Z,3.10
2023-08-01T05:35:23.243Z,2.78
2023-08-01T05:37:51.006Z,2.70
2023-08-01T05:40:19.017Z,2.95
2023-08-01T05:42:46.773Z,2.72
2023-08-01T05:45:14.593Z,2.67
2023-08-01T05:47:42.372Z,2.78
2023-08-01T05:50:10.579Z,2.50
2023-08-01T05:52:38.335Z,2.13
2023-08-01T05:55:06.654Z,2.50
2023-08-01T05:57:34.607Z,2.95
2023-08-01T06:00:02.409Z,2.75
2023-08-01T06:02:40.426Z,3.10
2023-08-01T06:05:08.412Z,2.97
2023-08-01T06:07:36.157Z,3.08
2023-08-01T06:10:05.291Z,3.03
2023-08-01T06:12:33.075Z,2.63
2023-08-01T06:15:00.850Z,3.20
2023-08-01T06:17:28.656Z,2.97
2023-08-01T06:19:56.400Z,2.55
2023-08-01T06:22:24.237Z,2.50
2023-08-01T06:24:52.012Z,2.60
2023-08-01T06:27:19.876Z,2.30
2023-08-01T06:29:47.682Z,2.75
2023-08-01T06:32:15.482Z,2.42
2023-08-01T06:34:43.225Z,2.40
2023-08-01T06:37:11.387Z,2.60
2023-08-01T06:39:39.227Z,2.30
2023-08-01T06:42:07.335Z,2.08
2023-08-01T06:44:35.345Z,2.25
2023-08-01T06:47:03.154Z,2.30
2023-08-01T06:49:30.879Z,2.05
2023-08-01T06:51:58.666Z,2.33
2023-08-01T06:54:26.475Z,2.40
2023-08-01T06:56:54.186Z,2.30
2023-08-01T06:59:22.081Z,2.10
2023-08-01T07:01:50.005Z,1.90
2023-08-01T07:04:17.816Z,2.13
2023-08-01T07:06:45.713Z,2.00
2023-08-01T07:09:13.527Z,2.70
2023-08-01T07:11:41.289Z,2.53
2023-08-01T07:14:09.102Z,2.25
2023-08-01T07:16:36.860Z,2.00
2023-08-01T07:19:04.597Z,1.63
2023-08-01T07:21:32.408Z,1.50
2023-08-01T07:24:01.392Z,1.90
2023-08-01T07:26:30.303Z,1.90
2023-08-01T07:28:58.128Z,1.58
2023-08-01T07:31:25.978Z,1.73
2023-08-01T07:33:53.785Z,1.88
2023-08-01T07:36:22.759Z,1.80
2023-08-01T07:38:50.628Z,1.75
2023-08-01T07:41:18.348Z,1.40
2023-08-01T07:43:46.133Z,1.63
2023-08-01T07:46:13.933Z,2.00
2023-08-01T07:48:41.844Z,1.85
2023-08-01T07:51:10.869Z,1.60
2023-08-01T07:53:38.966Z,1.98
2023-08-01T07:56:08.726Z,1.77
2023-08-01T07:58:37.008Z,1.60
2023-08-01T08:01:07.937Z,1.42
2023-08-01T08:03:35.813Z,1.30
2023-08-01T08:06:05.045Z,1.60
2023-08-01T08:08:34.767Z,1.42
2023-08-01T08:11:02.680Z,1.80
2023-08-01T08:13:30.469Z,1.60
2023-08-01T08:15:58.785Z,1.45
2023-08-01T08:18:27.773Z,1.70
2023-08-01T08:20:55.642Z,1.73
2023-08-01T08:23:23.385Z,1.70
2023-08-01T08:25:51.683Z,1.30
2023-08-01T08:28:32.195Z,1.23
2023-08-01T08:31:00.503Z,1.50
2023-08-01T08:33:28.250Z,1.80
2023-08-01T08:35:56.008Z,1.58
2023-08-01T08:38:23.804Z,1.60
2023-08-01T08:41:03.469Z,1.30
2023-08-01T08:43:32.535Z,1.13
2023-08-01T08:46:01.222Z,1.30
2023-08-01T08:48:29.226Z,1.50
2023-08-01T08:51:00.880Z,1.50
2023-08-01T08:53:28.813Z,1.50
2023-08-01T08:55:56.728Z,1.23
2023-08-01T08:58:24.499Z,1.80
2023-08-01T09:00:52.379Z,1.40
2023-08-01T09:03:20.725Z,1.38
2023-08-01T09:05:51.028Z,1.60
2023-08-01T09:08:22.120Z,1.33
2023-08-01T09:10:49.955Z,1.70
2023-08-01T09:13:18.941Z,1.30
2023-08-01T09:15:46.862Z,1.48
2023-08-01T09:18:14.593Z,1.50
2023-08-01T09:20:44.417Z,1.60
2023-08-01T09:23:12.499Z,1.60
2023-08-01T09:25:40.505Z,1.10
2023-08-01T09:28:22.875Z,1.30
2023-08-01T09:30:52.380Z,1.30
2023-08-01T09:33:20.147Z,1.40
2023-08-01T09:35:53.004Z,1.55
2023-08-01T09:38:21.204Z,1.30
2023-08-01T09:40:49.011Z,1.48
2023-08-01T09:43:16.775Z,1.30
2023-08-01T09:45:54.343Z,1.58
2023-08-01T09:48:24.792Z,1.92
2023-08-01T09:50:52.578Z,1.55
2023-08-01T09:53:20.365Z,1.85
2023-08-01T09:55:48.172Z,1.80
2023-08-01T09:58:16.029Z,1.58
2023-08-01T10:00:44.803Z,1.48
2023-08-01T10:03:12.721Z,1.55
2023-08-01T10:05:40.548Z,1.60
2023-08-01T10:08:08.412Z,1.77
2023-08-01T10:10:36.203Z,1.83
2023-08-01T10:13:04.021Z,1.55
2023-08-01T10:15:31.850Z,1.35
2023-08-01T10:17:59.872Z,1.65
2023-08-01T10:20:27.859Z,1.67
2023-08-01T10:22:55.677Z,1.58
2023-08-01T10:25:23.590Z,1.52
2023-08-01T10:28:01.214Z,1.60
2023-08-01T10:30:29.339Z,1.60
2023-08-01T10:33:00.637Z,1.65
2023-08-01T10:35:38.452Z,2.83
2023-08-01T10:38:11.177Z,1.38
2023-08-01T10:40:43.691Z,1.52
2023-08-01T10:43:23.999Z,1.50
2023-08-01T10:46:05.021Z,1.75
2023-08-01T10:48:32.962Z,1.63
2023-08-01T10:51:00.826Z,1.65
2023-08-01T10:53:41.923Z,1.50
2023-08-01T10:56:18.402Z,1.63
2023-08-01T10:58:46.753Z,1.67
2023-08-01T11:01:14.948Z,1.60
2023-08-01T11:03:43.177Z,1.77
2023-08-01T11:06:11.162Z,1.30
2023-08-01T11:08:39.648Z,1.70
2023-08-01T11:11:09.767Z,1.50
2023-08-01T11:13:37.761Z,1.70
2023-08-01T11:16:07.224Z,1.50
2023-08-01T11:18:44.233Z,1.70
2023-08-01T11:21:12.067Z,1.45
2023-08-01T11:23:39.870Z,1.85
2023-08-01T11:26:10.687Z,1.80
2023-08-01T11:28:38.589Z,1.60
2023-08-01T11:31:14.062Z,1.50
2023-08-01T11:33:41.928Z,1.40
2023-08-01T11:36:09.756Z,1.70
2023-08-01T11:38:37.571Z,1.50
2023-08-01T11:41:05.505Z,1.70
2023-08-01T11:43:40.943Z,1.80
2023-08-01T11:46:08.858Z,1.70
2023-08-01T11:48:37.020Z,1.33
2023-08-01T11:51:05.462Z,1.58
2023-08-01T11:53:40.098Z,1.40
2023-08-01T11:56:08.254Z,1.75
2023-08-01T11:58:37.947Z,1.60
2023-08-01T12:01:14.815Z,1.50
2023-08-01T12:03:52.446Z,1.83
2023-08-01T12:06:22.907Z,1.65
2023-08-01T12:08:52.877Z,1.60
2023-08-01T12:11:29.081Z,1.48
2023-08-01T12:14:03.568Z,1.40
2023-08-01T12:16:31.495Z,1.65
2023-08-01T12:19:01.314Z,1.60
2023-08-01T12:21:30.407Z,1.45
2023-08-01T12:23:58.336Z,1.77
2023-08-01T12:26:26.272Z,1.48
2023-08-01T12:28:54.105Z,1.60
2023-08-01T12:31:22.742Z,1.50
2023-08-01T12:33:50.485Z,1.25
2023-08-01T12:36:18.291Z,1.65
2023-08-01T12:38:46.042Z,1.77
2023-08-01T12:41:13.824Z,1.38
2023-08-01T12:43:42.319Z,2.05
2023-08-01T12:46:10.161Z,1.75
2023-08-01T12:48:37.995Z,1.60
2023-08-01T12:51:06.047Z,1.30
2023-08-01T12:53:33.791Z,1.70
2023-08-01T12:56:07.530Z,1.67
2023-08-01T12:58:35.356Z,1.60
2023-08-01T13:01:04.696Z,2.05
2023-08-01T13:03:32.755Z,1.60
2023-08-01T13:06:00.616Z,2.00
2023-08-01T13:08:30.212Z,1.55
2023-08-01T13:11:00.908Z,1.50
2023-08-01T13:13:29.164Z,1.67
2023-08-01T13:15:59.980Z,1.60
2023-08-01T13:18:27.797Z,1.50
2023-08-01T13:20:57.408Z,1.50
2023-08-01T13:23:25.545Z,1.50
2023-08-01T13:25:53.327Z,1.48
2023-08-01T13:28:21.117Z,1.60
2023-08-01T13:30:48.955Z,1.40
2023-08-01T13:33:16.856Z,1.55
2023-08-01T13:35:44.701Z,1.52
2023-08-01T13:38:14.071Z,1.35
2023-08-01T13:40:41.819Z,1.67
2023-08-01T13:43:09.596Z,1.40
2023-08-01T13:45:37.405Z,1.65
2023-08-01T13:48:05.459Z,1.50
2023-08-01T13:50:33.258Z,1.48
2023-08-01T13:53:01.049Z,1.25
2023-08-01T13:55:28.817Z,1.67
2023-08-01T13:57:56.644Z,1.50
2023-08-01T14:00:24.474Z,1.65
2023-08-01T14:02:52.970Z,1.60
2023-08-01T14:05:20.860Z,1.58
2023-08-01T14:07:48.764Z,1.83
2023-08-01T14:10:17.091Z,1.60
2023-08-01T14:12:44.976Z,1.38
2023-08-01T14:15:12.783Z,1.40
2023-08-01T14:17:41.116Z,1.63
2023-08-01T14:20:10.436Z,1.65
2023-08-01T14:22:38.328Z,1.30
2023-08-01T14:25:07.577Z,1.70
2023-08-01T14:27:35.505Z,1.25
2023-08-01T14:30:03.639Z,1.40
2023-08-01T14:32:31.534Z,1.55
2023-08-01T14:34:59.380Z,1.58
2023-08-01T14:37:27.356Z,1.50
2023-08-01T14:39:55.212Z,1.45
2023-08-01T14:42:23.043Z,1.45
2023-08-01T14:44:54.411Z,1.60
2023-08-01T14:47:22.482Z,1.30
2023-08-01T14:49:50.471Z,1.25
2023-08-01T14:52:18.475Z,1.50
2023-08-01T14:54:47.969Z,1.65
2023-08-01T14:57:15.778Z,1.60
2023-08-01T14:59:43.570Z,1.40
2023-08-01T15:02:11.835Z,1.40
2023-08-01T15:04:39.932Z,1.23
2023-08-01T15:07:07.763Z,1.30
2023-08-01T15:09:36.161Z,1.55
2023-08-01T15:12:04.096Z,1.42
2023-08-01T15:14:32.005Z,1.25
2023-08-01T15:16:59.721Z,1.52
2023-08-01T15:19:27.517Z,1.48
2023-08-01T15:21:55.277Z,1.48
2023-08-01T15:24:23.132Z,1.63
2023-08-01T15:26:50.931Z,1.30
2023-08-01T15:29:18.739Z,1.50
2023-08-01T15:31:46.581Z,1.48
2023-08-01T15:34:14.939Z,1.20
2023-08-01T15:36:42.860Z,1.58
2023-08-01T15:39:10.777Z,1.35
2023-08-01T15:41:38.644Z,1.80
2023-08-01T15:44:06.406Z,1.65
2023-08-01T15:46:34.612Z,1.23
2023-08-01T15:49:03.526Z,1.80
2023-08-01T15:51:32.008Z,1.55
2023-08-01T15:53:59.845Z,1.50
2023-08-01T15:56:27.633Z,1.67
2023-08-01T15:58:55.397Z,1.50
2023-08-01T16:01:23.137Z,1.33
2023-08-01T16:03:50.916Z,1.35
2023-08-01T16:06:18.686Z,1.67
2023-08-01T16:08:46.464Z,1.83
2023-08-01T16:11:15.108Z,1.45
2023-08-01T16:13:42.920Z,1.33
2023-08-01T16:16:10.724Z,1.50
2023-08-01T16:18:38.574Z,1.55
2023-08-01T16:21:06.334Z,1.75
2023-08-01T16:23:34.224Z,1.50
2023-08-01T16:26:03.739Z,1.35
2023-08-01T16:28:31.505Z,1.60
2023-08-01T16:30:59.350Z,1.55
2023-08-01T16:33:27.206Z,1.40
2023-08-01T16:35:55.087Z,1.58
2023-08-01T16:38:22.867Z,1.65
2023-08-01T16:40:50.720Z,1.20
2023-08-01T16:43:18.438Z,1.58
2023-08-01T16:45:46.272Z,1.40
2023-08-01T16:48:14.156Z,1.55
2023-08-01T16:50:41.968Z,1.63
2023-08-01T16:53:09.818Z,1.30
2023-08-01T16:55:38.708Z,1.50
2023-08-01T16:58:06.470Z,1.40
2023-08-01T17:00:34.322Z,1.40
2023-08-01T17:03:02.201Z,1.92
2023-08-01T17:05:30.089Z,1.70
2023-08-01T17:07:57.847Z,1.13
2023-08-01T17:10:25.729Z,1.38
2023-08-01T17:12:53.484Z,1.52
2023-08-01T17:15:21.302Z,1.73
2023-08-01T17:17:49.181Z,1.80
2023-08-01T17:20:17.065Z,1.80
2023-08-01T17:22:44.890Z,1.80
2023-08-01T17:25:12.900Z,1.60
2023-08-01T17:27:42.542Z,1.42
2023-08-01T17:30:11.320Z,1.90
2023-08-01T17:32:39.697Z,1.95
2023-08-01T17:35:08.288Z,1.55
2023-08-01T17:37:36.049Z,1.65
2023-08-01T17:40:04.605Z,1.77
2023-08-01T17:42:32.424Z,1.60
2023-08-01T17:45:00.200Z,1.60
2023-08-01T17:47:28.671Z,1.80
2023-08-01T17:49:56.459Z,1.90
2023-08-01T17:52:24.646Z,1.63
2023-08-01T17:54:52.504Z,1.75
2023-08-01T17:57:20.338Z,1.70
2023-08-01T17:59:48.132Z,1.60
2023-08-01T18:02:15.917Z,1.45
2023-08-01T18:04:47.012Z,1.95
2023-08-01T18:07:14.835Z,1.48
2023-08-01T18:09:42.562Z,1.80
2023-08-01T18:12:10.947Z,1.73
2023-08-01T18:14:38.712Z,2.60
2023-08-01T18:17:06.901Z,1.90
2023-08-01T18:19:34.836Z,1.90
2023-08-01T18:22:02.878Z,1.70
2023-08-01T18:24:32.501Z,1.90
2023-08-01T18:27:00.264Z,1.85
2023-08-01T18:29:28.236Z,1.95
2023-08-01T18:31:56.022Z,1.55
2023-08-01T18:34:23.949Z,1.80
2023-08-01T18:36:51.861Z,1.70
2023-08-01T18:39:19.610Z,1.88
2023-08-01T18:41:47.420Z,1.80
2023-08-01T18:44:15.128Z,1.58
2023-08-01T18:46:43.327Z,2.05
2023-08-01T18:49:11.496Z,1.77
2023-08-01T18:51:39.322Z,1.75
2023-08-01T18:54:07.824Z,1.75
2023-08-01T18:56:35.602Z,1.90
2023-08-01T18:59:03.398Z,1.98
2023-08-01T19:01:31.440Z,1.77
2023-08-01T19:03:59.755Z,1.90
2023-08-01T19:06:28.051Z,2.38
2023-08-01T19:09:09.909Z,1.90
2023-08-01T19:11:44.485Z,2.15
2023-08-01T19:14:12.284Z,1.88
2023-08-01T19:16:40.287Z,2.20
2023-08-01T19:19:08.365Z,2.08
2023-08-01T19:21:36.162Z,2.30
2023-08-01T19:24:04.258Z,2.40
2023-08-01T19:26:32.847Z,2.28
2023-08-01T19:29:00.692Z,2.03
2023-08-01T19:31:28.667Z,2.20
2023-08-01T19:33:56.566Z,1.92
2023-08-01T19:36:24.385Z,2.10
2023-08-01T19:38:52.121Z,2.10
2023-08-01T19:41:19.909Z,1.95
2023-08-01T19:43:47.677Z,1.90
2023-08-01T19:46:16.494Z,1.98
2023-08-01T19:48:46.259Z,1.90
2023-08-01T19:51:14.233Z,1.92
2023-08-01T19:53:42.639Z,2.20
2023-08-01T19:56:10.404Z,1.90
2023-08-01T19:58:38.721Z,1.83
2023-08-01T20:01:06.522Z,2.20
2023-08-01T20:03:34.665Z,1.95
2023-08-01T20:06:03.903Z,2.20
2023-08-01T20:08:31.693Z,2.10
2023-08-01T20:10:59.995Z,2.53
2023-08-01T20:13:27.856Z,2.83
2023-08-01T20:15:55.960Z,2.20
2023-08-01T20:18:24.337Z,2.95
2023-08-01T20:20:52.651Z,2.58
2023-08-01T20:23:20.369Z,2.42
2023-08-01T20:25:49.370Z,2.30
2023-08-01T20:28:18.884Z,2.30
2023-08-01T20:30:46.815Z,3.28
2023-08-01T20:33:16.384Z,2.75
2023-08-01T20:35:44.296Z,3.15
2023-08-01T20:38:12.056Z,2.63
2023-08-01T20:40:42.249Z,2.10
2023-08-01T20:43:10.056Z,2.03
2023-08-01T20:45:37.946Z,2.22
2023-08-01T20:48:08.955Z,2.15
2023-08-01T20:50:37.423Z,2.28
2023-08-01T20:53:05.148Z,2.08
2023-08-01T20:55:32.984Z,1.80
2023-08-01T20:58:00.790Z,1.98
2023-08-01T21:00:29.079Z,1.65
2023-08-01T21:02:56.915Z,1.77
2023-08-01T21:05:24.832Z,1.98
2023-08-01T21:07:53.002Z,1.83
2023-08-01T21:10:20.859Z,2.17
2023-08-01T21:12:48.624Z,2.22
2023-08-01T21:15:17.869Z,2.00
2023-08-01T21:17:45.706Z,7.53
2023-08-01T21:20:13.712Z,12.93
2023-08-01T21:22:41.581Z,14.40
2023-08-01T21:25:09.697Z,17.85
2023-08-01T21:27:37.501Z,17.00
2023-08-01T21:30:06.158Z,19.40
2023-08-01T21:32:34.052Z,13.18
2023-08-01T21:35:01.810Z,8.60
2023-08-01T21:37:29.598Z,8.00
2023-08-01T21:39:58.859Z,7.85
2023-08-01T21:42:26.720Z,8.13
2023-08-01T21:44:57.452Z,9.20
2023-08-01T21:47:25.225Z,12.57
2023-08-01T21:49:53.061Z,20.67
2023-08-01T21:52:20.900Z,25.25
2023-08-01T21:54:48.802Z,19.98
2023-08-01T21:57:16.599Z,21.10
2023-08-01T21:59:44.515Z,25.95
2023-08-01T22:02:12.346Z,22.10
2023-08-01T22:04:40.122Z,21.90
2023-08-01T22:07:07.958Z,21.35
2023-08-01T22:09:35.721Z,21.75
2023-08-01T22:12:03.616Z,15.77
2023-08-01T22:14:31.336Z,15.68
2023-08-01T22:16:59.175Z,16.80
2023-08-01T22:19:27.016Z,15.13
2023-08-01T22:21:54.790Z,14.40
2023-08-01T22:24:22.559Z,13.73
2023-08-01T22:26:50.954Z,13.65
2023-08-01T22:29:18.664Z,14.73
2023-08-01T22:31:46.433Z,15.02
2023-08-01T22:34:14.276Z,13.45
2023-08-01T22:36:43.157Z,12.95
2023-08-01T22:39:15.722Z,10.65
2023-08-01T22:41:43.659Z,11.52
2023-08-01T22:44:11.401Z,11.88
2023-08-01T22:46:39.320Z,11.10
2023-08-01T22:49:07.388Z,10.80
2023-08-01T22:51:35.430Z,10.90
2023-08-01T22:54:03.269Z,11.27
2023-08-01T22:56:31.131Z,10.60
2023-08-01T22:58:58.947Z,12.40
2023-08-01T23:01:26.947Z,11.45
2023-08-01T23:03:54.749Z,10.57
2023-08-01T23:06:22.950Z,10.88
2023-08-01T23:08:50.878Z,10.40
2023-08-01T23:11:18.782Z,8.82
2023-08-01T23:13:46.517Z,8.18
2023-08-01T23:16:14.597Z,9.00
2023-08-01T23:18:42.341Z,8.98
2023-08-01T23:21:10.173Z,8.82
2023-08-01T23:23:37.911Z,7.80
2023-08-01T23:26:10.010Z,8.35
2023-08-01T23:28:39.337Z,7.13
2023-08-01T23:31:07.186Z,6.15
2023-08-01T23:33:34.983Z,6.35
2023-08-01T23:36:03.592Z,5.50
2023-08-01T23:38:31.336Z,5.15
2023-08-01T23:40:59.102Z,4.35
2023-08-01T23:43:26.971Z,4.40
2023-08-01T23:45:55.003Z,3.53
2023-08-01T23:48:23.642Z,3.97
2023-08-01T23:50:51.520Z,3.30
2023-08-01T23:53:19.384Z,3.10
2023-08-01T23:55:50.209Z,2.40
2023-08-01T23:58:17.970Z,2.65
